Time,TemperatureF,DewpointF,PressureIn,WindDirection,WindDirectionDegrees,WindSpeedMPH,WindSpeedGustMPH,Humidity,HourlyPrecipIn,Conditions,Clouds,dailyrainin,SoftwareType,DateUTC
2014-04-18 00:03:00,37.9,32.6,29.75,West,270,1.0,-999.0,81,0.00,,,0.00,Wunderground v.1.15,2014-04-18 07:03:00,
2014-04-18 00:08:00,37.9,32.6,29.75,West,270,1.0,-999.0,81,0.00,,,0.00,Wunderground v.1.15,2014-04-18 07:08:00,
2014-04-18 00:13:00,37.9,32.6,29.75,West,270,1.0,-999.0,81,0.00,,,0.00,Wunderground v.1.15,2014-04-18 07:13:00,
2014-04-18 00:18:00,37.9,32.6,29.75,West,270,1.0,-999.0,81,0.00,,,0.00,Wunderground v.1.15,2014-04-18 07:18:00,
2014-04-18 00:23:00,37.9,32.6,29.75,West,270,1.0,-999.0,81,0.00,,,0.00,Wunderground v.1.15,2014-04-18 07:23:00,
2014-04-18 00:28:00,37.9,32.6,29.75,West,270,1.0,-999.0,81,0.00,,,0.00,Wunderground v.1.15,2014-04-18 07:28:00,
2014-04-18 00:33:00,37.9,32.6,29.75,West,270,1.0,-999.0,81,0.00,,,0.00,Wunderground v.1.15,2014-04-18 07:33:00,
2014-04-18 00:38:00,37.9,32.6,29.75,West,270,1.0,-999.0,81,0.00,,,0.00,Wunderground v.1.15,2014-04-18 07:38:00,
2014-04-18 00:43:00,37.9,32.6,29.75,West,270,1.0,-999.0,81,0.00,,,0.00,Wunderground v.1.15,2014-04-18 07:43:00,
2014-04-18 00:48:00,37.1,31.5,29.77,NW,315,1.0,-999.0,80,0.00,,,0.00,Wunderground v.1.15,2014-04-18 07:48:00,
2014-04-18 00:53:00,37.1,31.5,29.77,NW,315,1.0,-999.0,80,0.00,,,0.00,Wunderground v.1.15,2014-04-18 07:53:00,
2014-04-18 00:58:00,37.1,31.5,29.77,NW,315,1.0,-999.0,80,0.00,,,0.00,Wunderground v.1.15,2014-04-18 07:58:00,
2014-04-18 01:03:00,37.1,31.5,29.77,NW,315,1.0,-999.0,80,0.00,,,0.00,Wunderground v.1.15,2014-04-18 08:03:00,
2014-04-18 01:08:00,37.1,31.5,29.77,NW,315,1.0,-999.0,80,0.00,,,0.00,Wunderground v.1.15,2014-04-18 08:08:00,
2014-04-18 01:13:00,37.1,31.5,29.77,NW,315,1.0,-999.0,80,0.00,,,0.00,Wunderground v.1.15,2014-04-18 08:13:00,
2014-04-18 01:18:00,35.3,30.7,29.77,NW,315,0.0,-999.0,83,0.00,,,0.00,Wunderground v.1.15,2014-04-18 08:18:00,
2014-04-18 01:23:00,35.3,30.7,29.77,NW,315,0.0,-999.0,83,0.00,,,0.00,Wunderground v.1.15,2014-04-18 08:23:00,
2014-04-18 01:28:00,35.3,30.7,29.77,NW,315,0.0,-999.0,83,0.00,,,0.00,Wunderground v.1.15,2014-04-18 08:28:00,
2014-04-18 01:33:00,35.3,30.7,29.77,NW,315,0.0,-999.0,83,0.00,,,0.00,Wunderground v.1.15,2014-04-18 08:33:00,
2014-04-18 01:38:00,35.3,30.7,29.77,NW,315,0.0,-999.0,83,0.00,,,0.00,Wunderground v.1.15,2014-04-18 08:38:00,
2014-04-18 01:43:00,35.3,30.7,29.77,NW,315,0.0,-999.0,83,0.00,,,0.00,Wunderground v.1.15,2014-04-18 08:43:00,
2014-04-18 01:48:00,33.5,29.2,29.77,NW,315,0.0,-999.0,84,0.00,,,0.00,Wunderground v.1.15,2014-04-18 08:48:00,
2014-04-18 01:53:00,33.5,29.2,29.77,NW,315,0.0,-999.0,84,0.00,,,0.00,Wunderground v.1.15,2014-04-18 08:53:00,
2014-04-18 01:58:00,33.5,29.2,29.77,NW,315,0.0,-999.0,84,0.00,,,0.00,Wunderground v.1.15,2014-04-18 08:58:00,
2014-04-18 02:03:00,33.5,29.2,29.77,NW,315,0.0,-999.0,84,0.00,,,0.00,Wunderground v.1.15,2014-04-18 09:03:00,
2014-04-18 02:08:00,33.5,29.2,29.77,NW,315,0.0,-999.0,84,0.00,,,0.00,Wunderground v.1.15,2014-04-18 09:08:00,
2014-04-18 02:13:00,33.5,29.2,29.77,NW,315,0.0,-999.0,84,0.00,,,0.00,Wunderground v.1.15,2014-04-18 09:13:00,
2014-04-18 02:18:00,32.5,28.5,29.77,NW,315,0.0,-999.0,85,0.00,,,0.00,Wunderground v.1.15,2014-04-18 09:18:00,
2014-04-18 02:23:00,32.5,28.5,29.77,NW,315,0.0,-999.0,85,0.00,,,0.00,Wunderground v.1.15,2014-04-18 09:23:00,
2014-04-18 02:28:00,32.5,28.5,29.77,NW,315,0.0,-999.0,85,0.00,,,0.00,Wunderground v.1.15,2014-04-18 09:28:00,
2014-04-18 02:33:00,32.5,28.5,29.77,NW,315,0.0,-999.0,85,0.00,,,0.00,Wunderground v.1.15,2014-04-18 09:33:00,
2014-04-18 02:38:00,32.5,28.5,29.77,NW,315,0.0,-999.0,85,0.00,,,0.00,Wunderground v.1.15,2014-04-18 09:38:00,
2014-04-18 02:43:00,32.5,28.5,29.77,NW,315,0.0,-999.0,85,0.00,,,0.00,Wunderground v.1.15,2014-04-18 09:43:00,
2014-04-18 02:48:00,31.0,27.0,29.77,NW,315,0.0,-999.0,85,0.00,,,0.00,Wunderground v.1.15,2014-04-18 09:48:00,
2014-04-18 02:53:00,31.0,27.0,29.77,NW,315,0.0,-999.0,85,0.00,,,0.00,Wunderground v.1.15,2014-04-18 09:53:00,
2014-04-18 02:58:00,31.0,27.0,29.77,NW,315,0.0,-999.0,85,0.00,,,0.00,Wunderground v.1.15,2014-04-18 09:58:00,
2014-04-18 03:03:00,31.0,27.0,29.77,NW,315,0.0,-999.0,85,0.00,,,0.00,Wunderground v.1.15,2014-04-18 10:03:00,
2014-04-18 03:08:00,31.0,27.0,29.77,NW,315,0.0,-999.0,85,0.00,,,0.00,Wunderground v.1.15,2014-04-18 10:08:00,
2014-04-18 03:13:00,31.0,27.0,29.77,NW,315,0.0,-999.0,85,0.00,,,0.00,Wunderground v.1.15,2014-04-18 10:13:00,
2014-04-18 03:18:00,29.9,25.9,29.78,NW,315,0.0,-999.0,85,0.00,,,0.00,Wunderground v.1.15,2014-04-18 10:18:00,
2014-04-18 03:23:00,29.9,25.9,29.78,NW,315,0.0,-999.0,85,0.00,,,0.00,Wunderground v.1.15,2014-04-18 10:23:00,
2014-04-18 03:28:00,29.9,25.9,29.78,NW,315,0.0,-999.0,85,0.00,,,0.00,Wunderground v.1.15,2014-04-18 10:28:00,
2014-04-18 03:33:00,29.9,25.9,29.78,NW,315,0.0,-999.0,85,0.00,,,0.00,Wunderground v.1.15,2014-04-18 10:33:00,
2014-04-18 03:38:00,29.9,25.9,29.78,NW,315,0.0,-999.0,85,0.00,,,0.00,Wunderground v.1.15,2014-04-18 10:38:00,
2014-04-18 03:43:00,29.9,25.9,29.78,NW,315,0.0,-999.0,85,0.00,,,0.00,Wunderground v.1.15,2014-04-18 10:43:00,
2014-04-18 03:48:00,29.4,25.7,29.78,NW,315,0.0,-999.0,86,0.00,,,0.00,Wunderground v.1.15,2014-04-18 10:48:00,
2014-04-18 03:53:00,29.4,25.7,29.78,NW,315,0.0,-999.0,86,0.00,,,0.00,Wunderground v.1.15,2014-04-18 10:53:00,
2014-04-18 03:58:00,29.4,25.7,29.78,NW,315,0.0,-999.0,86,0.00,,,0.00,Wunderground v.1.15,2014-04-18 10:58:00,
2014-04-18 04:03:00,29.4,25.7,29.78,NW,315,0.0,-999.0,86,0.00,,,0.00,Wunderground v.1.15,2014-04-18 11:03:00,
2014-04-18 04:08:00,29.4,25.7,29.78,NW,315,0.0,-999.0,86,0.00,,,0.00,Wunderground v.1.15,2014-04-18 11:08:00,
2014-04-18 04:13:00,29.4,25.7,29.78,NW,315,0.0,-999.0,86,0.00,,,0.00,Wunderground v.1.15,2014-04-18 11:13:00,
2014-04-18 04:18:00,28.9,25.2,29.78,NW,315,0.0,-999.0,86,0.00,,,0.00,Wunderground v.1.15,2014-04-18 11:18:00,
2014-04-18 04:23:00,28.9,25.2,29.78,NW,315,0.0,-999.0,86,0.00,,,0.00,Wunderground v.1.15,2014-04-18 11:23:00,
2014-04-18 04:28:00,28.9,25.2,29.78,NW,315,0.0,-999.0,86,0.00,,,0.00,Wunderground v.1.15,2014-04-18 11:28:00,
2014-04-18 04:33:00,28.9,25.2,29.78,NW,315,0.0,-999.0,86,0.00,,,0.00,Wunderground v.1.15,2014-04-18 11:33:00,
2014-04-18 04:38:00,28.9,25.2,29.78,NW,315,0.0,-999.0,86,0.00,,,0.00,Wunderground v.1.15,2014-04-18 11:38:00,
2014-04-18 04:43:00,28.9,25.2,29.78,NW,315,0.0,-999.0,86,0.00,,,0.00,Wunderground v.1.15,2014-04-18 11:43:00,
2014-04-18 04:48:00,29.3,25.6,29.79,NW,315,0.0,-999.0,86,0.00,,,0.00,Wunderground v.1.15,2014-04-18 11:48:00,
2014-04-18 04:53:00,29.3,25.6,29.79,NW,315,0.0,-999.0,86,0.00,,,0.00,Wunderground v.1.15,2014-04-18 11:53:00,
2014-04-18 04:58:00,29.3,25.6,29.79,NW,315,0.0,-999.0,86,0.00,,,0.00,Wunderground v.1.15,2014-04-18 11:58:00,
2014-04-18 05:03:00,29.3,25.6,29.79,NW,315,0.0,-999.0,86,0.00,,,0.00,Wunderground v.1.15,2014-04-18 12:03:00,
2014-04-18 05:08:00,29.3,25.6,29.79,NW,315,0.0,-999.0,86,0.00,,,0.00,Wunderground v.1.15,2014-04-18 12:08:00,
2014-04-18 05:13:00,29.3,25.6,29.79,NW,315,0.0,-999.0,86,0.00,,,0.00,Wunderground v.1.15,2014-04-18 12:13:00,
2014-04-18 05:18:00,29.1,25.4,29.80,NNE,23,0.0,-999.0,86,0.00,,,0.00,Wunderground v.1.15,2014-04-18 12:18:00,
2014-04-18 05:23:00,29.1,25.4,29.80,NNE,23,0.0,-999.0,86,0.00,,,0.00,Wunderground v.1.15,2014-04-18 12:23:00,
2014-04-18 05:28:00,29.1,25.4,29.80,NNE,23,0.0,-999.0,86,0.00,,,0.00,Wunderground v.1.15,2014-04-18 12:28:00,
2014-04-18 05:33:00,29.1,25.4,29.80,NNE,23,0.0,-999.0,86,0.00,,,0.00,Wunderground v.1.15,2014-04-18 12:33:00,
2014-04-18 05:38:00,29.1,25.4,29.80,NNE,23,0.0,-999.0,86,0.00,,,0.00,Wunderground v.1.15,2014-04-18 12:38:00,
2014-04-18 05:43:00,29.1,25.4,29.80,NNE,23,0.0,-999.0,86,0.00,,,0.00,Wunderground v.1.15,2014-04-18 12:43:00,
2014-04-18 05:48:00,28.0,24.6,29.80,NNE,23,0.0,-999.0,87,0.00,,,0.00,Wunderground v.1.15,2014-04-18 12:48:00,
2014-04-18 05:53:00,28.0,24.6,29.80,NNE,23,0.0,-999.0,87,0.00,,,0.00,Wunderground v.1.15,2014-04-18 12:53:00,
2014-04-18 05:58:00,28.0,24.6,29.80,NNE,23,0.0,-999.0,87,0.00,,,0.00,Wunderground v.1.15,2014-04-18 12:58:00,
2014-04-18 06:03:00,28.0,24.6,29.80,NNE,23,0.0,-999.0,87,0.00,,,0.00,Wunderground v.1.15,2014-04-18 13:03:00,
2014-04-18 06:08:00,28.0,24.6,29.80,NNE,23,0.0,-999.0,87,0.00,,,0.00,Wunderground v.1.15,2014-04-18 13:08:00,
2014-04-18 06:13:00,28.0,24.6,29.80,NNE,23,0.0,-999.0,87,0.00,,,0.00,Wunderground v.1.15,2014-04-18 13:13:00,
2014-04-18 06:18:00,28.3,24.9,29.81,NNE,23,0.0,-999.0,87,0.00,,,0.00,Wunderground v.1.15,2014-04-18 13:18:00,
2014-04-18 06:23:00,28.3,24.9,29.81,NNE,23,0.0,-999.0,87,0.00,,,0.00,Wunderground v.1.15,2014-04-18 13:23:00,
2014-04-18 06:28:00,28.3,24.9,29.81,NNE,23,0.0,-999.0,87,0.00,,,0.00,Wunderground v.1.15,2014-04-18 13:28:00,
2014-04-18 06:33:00,28.3,24.9,29.81,NNE,23,0.0,-999.0,87,0.00,,,0.00,Wunderground v.1.15,2014-04-18 13:33:00,
2014-04-18 06:38:00,28.3,24.9,29.81,NNE,23,0.0,-999.0,87,0.00,,,0.00,Wunderground v.1.15,2014-04-18 13:38:00,
2014-04-18 06:43:00,28.3,24.9,29.81,NNE,23,0.0,-999.0,87,0.00,,,0.00,Wunderground v.1.15,2014-04-18 13:43:00,
2014-04-18 06:48:00,27.6,24.0,29.81,NNW,338,0.0,-999.0,86,0.00,,,0.00,Wunderground v.1.15,2014-04-18 13:48:00,
2014-04-18 06:53:00,27.6,24.0,29.81,NNW,338,0.0,-999.0,86,0.00,,,0.00,Wunderground v.1.15,2014-04-18 13:53:00,
2014-04-18 06:58:00,27.6,24.0,29.81,NNW,338,0.0,-999.0,86,0.00,,,0.00,Wunderground v.1.15,2014-04-18 13:58:00,
2014-04-18 07:03:00,27.6,24.0,29.81,NNW,338,0.0,-999.0,86,0.00,,,0.00,Wunderground v.1.15,2014-04-18 14:03:00,
2014-04-18 07:08:00,27.6,24.0,29.81,NNW,338,0.0,-999.0,86,0.00,,,0.00,Wunderground v.1.15,2014-04-18 14:08:00,
2014-04-18 07:13:00,27.6,24.0,29.81,NNW,338,0.0,-999.0,86,0.00,,,0.00,Wunderground v.1.15,2014-04-18 14:13:00,
2014-04-18 07:18:00,29.5,26.1,29.82,North,0,0.0,-999.0,87,0.00,,,0.00,Wunderground v.1.15,2014-04-18 14:18:00,
2014-04-18 07:23:00,29.5,26.1,29.82,North,0,0.0,-999.0,87,0.00,,,0.00,Wunderground v.1.15,2014-04-18 14:23:00,
2014-04-18 07:28:00,29.5,26.1,29.82,North,0,0.0,-999.0,87,0.00,,,0.00,Wunderground v.1.15,2014-04-18 14:28:00,
2014-04-18 07:39:00,30.5,27.1,29.83,North,5,1.0,1.0,87,0.00,,,0.00,Wunderground v.1.15,2014-04-18 14:39:00,
2014-04-18 07:40:00,30.7,27.6,29.83,North,360,2.0,2.0,88,0.00,,,0.00,Wunderground v.1.15,2014-04-18 14:40:00,
2014-04-18 07:50:00,32.1,28.9,29.83,NW,315,1.0,1.0,88,0.00,,,0.00,Wunderground v.1.15,2014-04-18 14:50:00,
2014-04-18 07:55:00,32.9,29.7,29.82,NNW,330,0.0,1.0,88,0.00,,,0.00,Wunderground v.1.15,2014-04-18 14:55:00,